SHT9H EGPH-EGLL
Flight info
| Callsign | SHT9H |
|---|---|
| Flight time | N/A |
| Altitude | 31000 |
| Route | GOSAM P600 FENIK L612 NAVSO DCT AKOMU DCT VAMEB DCT NUGRA |
| Aircraft | A320/M-SDE3FGHIJ1RWXY/S |
Departure
| Time | 2026-04-20 13:01 |
|---|---|
| Airport | Edinburgh Airport (EGPH) |
Arrival
| Time | N/A |
|---|---|
| Airport | London Heathrow Airport (EGLL) |
| Time | Latitude | Longitude | Altitude | Speed | Heading |
|---|---|---|---|---|---|
| 2026-04-20 12:25 | 55.94918 | -3.36429 | 107 ft | 0 kts | 148° |
| 2026-04-20 12:46 | 55.94919 | -3.36429 | 107 ft | 1 kts | 148° |
| 2026-04-20 12:47 | 55.94941 | -3.36451 | 105 ft | 4 kts | 155° |
| 2026-04-20 12:47 | 55.94966 | -3.36468 | 106 ft | 4 kts | 171° |
| 2026-04-20 12:47 | 55.94990 | -3.36466 | 105 ft | 4 kts | 218° |
| 2026-04-20 12:47 | 55.94998 | -3.36450 | 106 ft | 1 kts | 239° |
| 2026-04-20 12:48 | 55.94998 | -3.36449 | 106 ft | 1 kts | 239° |
| 2026-04-20 12:55 | 55.94999 | -3.36449 | 107 ft | 0 kts | 239° |
| 2026-04-20 12:55 | 55.94997 | -3.36453 | 105 ft | 2 kts | 239° |
| 2026-04-20 12:56 | 55.94976 | -3.36516 | 107 ft | 8 kts | 238° |
| 2026-04-20 12:56 | 55.94941 | -3.36615 | 107 ft | 11 kts | 238° |
| 2026-04-20 12:56 | 55.94912 | -3.36702 | 107 ft | 9 kts | 243° |
| 2026-04-20 12:56 | 55.94911 | -3.36824 | 105 ft | 11 kts | 292° |
| 2026-04-20 12:57 | 55.94901 | -3.36972 | 107 ft | 14 kts | 243° |
| 2026-04-20 12:57 | 55.94845 | -3.37133 | 106 ft | 17 kts | 238° |
| 2026-04-20 12:57 | 55.94779 | -3.37324 | 107 ft | 19 kts | 238° |
| 2026-04-20 12:57 | 55.94702 | -3.37545 | 107 ft | 23 kts | 238° |
| 2026-04-20 12:58 | 55.94614 | -3.37798 | 107 ft | 26 kts | 238° |
| 2026-04-20 12:58 | 55.94521 | -3.38091 | 107 ft | 29 kts | 243° |
| 2026-04-20 12:58 | 55.94421 | -3.38417 | 107 ft | 31 kts | 241° |
| 2026-04-20 12:58 | 55.94323 | -3.38676 | 107 ft | 22 kts | 238° |
| 2026-04-20 12:59 | 55.94305 | -3.38864 | 107 ft | 11 kts | 324° |
| 2026-04-20 12:59 | 55.94370 | -3.38953 | 108 ft | 12 kts | 331° |
| 2026-04-20 12:59 | 55.94441 | -3.38898 | 109 ft | 13 kts | 56° |
| 2026-04-20 12:59 | 55.94460 | -3.38840 | 109 ft | 0 kts | 60° |
| 2026-04-20 13:00 | 55.94462 | -3.38836 | 109 ft | 5 kts | 60° |
| 2026-04-20 13:00 | 55.94624 | -3.38360 | 107 ft | 82 kts | 58° |
| 2026-04-20 13:00 | 55.95025 | -3.37183 | 108 ft | 137 kts | 58° |
| 2026-04-20 13:00 | 55.95525 | -3.35639 | 680 ft | 136 kts | 61° |
| 2026-04-20 13:01 | 55.96008 | -3.34237 | 1380 ft | 136 kts | 50° |
| 2026-04-20 13:01 | 55.96756 | -3.33003 | 1838 ft | 156 kts | 43° |
| 2026-04-20 13:01 | 55.97626 | -3.31622 | 2259 ft | 178 kts | 44° |
| 2026-04-20 13:01 | 55.98600 | -3.30069 | 2674 ft | 202 kts | 44° |
| 2026-04-20 13:02 | 55.99784 | -3.28442 | 3179 ft | 229 kts | 25° |
| 2026-04-20 13:02 | 56.01442 | -3.28157 | 3784 ft | 255 kts | 346° |
| 2026-04-20 13:02 | 56.02953 | -3.29855 | 4697 ft | 266 kts | 308° |
| 2026-04-20 13:02 | 56.03678 | -3.32908 | 5602 ft | 278 kts | 276° |
| 2026-04-20 13:03 | 56.03555 | -3.36538 | 5932 ft | 311 kts | 257° |
| 2026-04-20 13:03 | 56.02932 | -3.40468 | 6030 ft | 346 kts | 250° |
| 2026-04-20 13:03 | 56.02078 | -3.44701 | 6034 ft | 369 kts | 249° |
| 2026-04-20 13:03 | 56.01239 | -3.48879 | 6035 ft | 345 kts | 250° |
| 2026-04-20 13:04 | 56.00520 | -3.52839 | 6035 ft | 325 kts | 252° |
| 2026-04-20 13:04 | 55.99919 | -3.56573 | 6059 ft | 307 kts | 254° |
| 2026-04-20 13:04 | 55.99401 | -3.60107 | 6625 ft | 284 kts | 255° |
| 2026-04-20 13:04 | 55.98931 | -3.63486 | 7723 ft | 279 kts | 255° |
| 2026-04-20 13:05 | 55.98462 | -3.66860 | 8696 ft | 282 kts | 255° |
| 2026-04-20 13:05 | 55.97977 | -3.70303 | 9562 ft | 288 kts | 255° |
| 2026-04-20 13:05 | 55.97481 | -3.73799 | 10450 ft | 293 kts | 256° |
| 2026-04-20 13:05 | 55.96959 | -3.77464 | 10805 ft | 316 kts | 256° |
| 2026-04-20 13:06 | 55.96399 | -3.81366 | 11260 ft | 331 kts | 255° |
| 2026-04-20 13:06 | 55.95814 | -3.85380 | 11958 ft | 337 kts | 255° |
| 2026-04-20 13:06 | 55.95216 | -3.89452 | 12725 ft | 341 kts | 255° |
| 2026-04-20 13:06 | 55.94613 | -3.93571 | 13511 ft | 345 kts | 255° |
| 2026-04-20 13:07 | 55.93952 | -3.97716 | 14271 ft | 348 kts | 249° |
| 2026-04-20 13:07 | 55.92836 | -4.01562 | 14969 ft | 352 kts | 236° |
| 2026-04-20 13:07 | 55.91207 | -4.04848 | 15619 ft | 356 kts | 221° |
| 2026-04-20 13:07 | 55.89222 | -4.07418 | 16275 ft | 359 kts | 214° |
| 2026-04-20 13:08 | 55.87149 | -4.09935 | 16966 ft | 361 kts | 214° |
| 2026-04-20 13:08 | 55.85066 | -4.12474 | 17642 ft | 365 kts | 215° |
| 2026-04-20 13:08 | 55.82959 | -4.15041 | 18300 ft | 368 kts | 215° |
| 2026-04-20 13:08 | 55.80838 | -4.17627 | 18931 ft | 371 kts | 215° |
| 2026-04-20 13:09 | 55.78701 | -4.20241 | 19546 ft | 374 kts | 216° |
| 2026-04-20 13:09 | 55.76475 | -4.22703 | 20136 ft | 378 kts | 207° |
| 2026-04-20 13:09 | 55.74013 | -4.24369 | 20736 ft | 383 kts | 195° |
| 2026-04-20 13:09 | 55.71365 | -4.25088 | 21301 ft | 387 kts | 183° |
| 2026-04-20 13:10 | 55.68661 | -4.24784 | 21806 ft | 393 kts | 170° |
| 2026-04-20 13:10 | 55.66048 | -4.23484 | 22300 ft | 398 kts | 159° |
| 2026-04-20 13:10 | 55.63538 | -4.21355 | 22797 ft | 402 kts | 150° |
| 2026-04-20 13:10 | 55.61058 | -4.18898 | 23316 ft | 406 kts | 151° |
| 2026-04-20 13:11 | 55.58609 | -4.16491 | 23803 ft | 410 kts | 151° |
| 2026-04-20 13:11 | 55.56100 | -4.14045 | 24220 ft | 413 kts | 151° |
| 2026-04-20 13:11 | 55.53573 | -4.11588 | 24646 ft | 416 kts | 151° |
| 2026-04-20 13:11 | 55.50988 | -4.09078 | 25081 ft | 420 kts | 151° |
| 2026-04-20 13:12 | 55.48452 | -4.06619 | 25501 ft | 423 kts | 151° |
| 2026-04-20 13:12 | 55.45865 | -4.04110 | 25927 ft | 426 kts | 151° |
| 2026-04-20 13:12 | 55.43262 | -4.01583 | 26322 ft | 429 kts | 151° |
| 2026-04-20 13:12 | 55.40635 | -3.99033 | 26723 ft | 433 kts | 151° |
| 2026-04-20 13:13 | 55.37989 | -3.96467 | 27121 ft | 436 kts | 151° |
| 2026-04-20 13:13 | 55.35320 | -3.93884 | 27519 ft | 439 kts | 151° |
| 2026-04-20 13:13 | 55.32631 | -3.91291 | 27915 ft | 442 kts | 151° |
| 2026-04-20 13:13 | 55.29915 | -3.88679 | 28315 ft | 446 kts | 151° |
| 2026-04-20 13:14 | 55.27186 | -3.86055 | 28710 ft | 449 kts | 151° |
| 2026-04-20 13:14 | 55.24440 | -3.83418 | 29158 ft | 451 kts | 151° |
| 2026-04-20 13:14 | 55.21676 | -3.80777 | 29569 ft | 453 kts | 152° |
| 2026-04-20 13:14 | 55.18867 | -3.78221 | 29951 ft | 457 kts | 153° |
| 2026-04-20 13:15 | 55.15997 | -3.75734 | 30301 ft | 461 kts | 154° |
| 2026-04-20 13:15 | 55.13096 | -3.73296 | 30619 ft | 465 kts | 154° |
| 2026-04-20 13:15 | 55.10166 | -3.70861 | 30943 ft | 467 kts | 154° |
| 2026-04-20 13:15 | 55.07228 | -3.68411 | 31238 ft | 469 kts | 154° |
| 2026-04-20 13:16 | 55.04330 | -3.65969 | 31310 ft | 462 kts | 154° |
| 2026-04-20 13:16 | 55.01492 | -3.63554 | 31318 ft | 449 kts | 154° |
| 2026-04-20 13:16 | 54.98707 | -3.61169 | 31317 ft | 445 kts | 154° |
| 2026-04-20 13:17 | 54.93170 | -3.56428 | 31313 ft | 443 kts | 154° |
| 2026-04-20 13:17 | 54.87624 | -3.51712 | 31318 ft | 444 kts | 154° |
| 2026-04-20 13:18 | 54.82070 | -3.47017 | 31318 ft | 444 kts | 154° |
| 2026-04-20 13:18 | 54.76548 | -3.42370 | 31319 ft | 444 kts | 154° |
| 2026-04-20 13:19 | 54.70989 | -3.37705 | 31321 ft | 444 kts | 154° |
| 2026-04-20 13:19 | 54.65423 | -3.33033 | 31315 ft | 444 kts | 154° |
| 2026-04-20 13:20 | 54.59859 | -3.28386 | 31318 ft | 444 kts | 154° |
| 2026-04-20 13:20 | 54.54292 | -3.23749 | 31319 ft | 444 kts | 154° |
| 2026-04-20 13:21 | 54.48730 | -3.19123 | 31340 ft | 444 kts | 154° |
| 2026-04-20 13:21 | 54.43168 | -3.14523 | 31323 ft | 443 kts | 155° |
| 2026-04-20 13:22 | 54.37631 | -3.09960 | 31320 ft | 443 kts | 155° |
| 2026-04-20 13:22 | 54.32063 | -3.05386 | 31319 ft | 443 kts | 155° |
| 2026-04-20 13:23 | 54.26505 | -3.00828 | 31310 ft | 443 kts | 155° |
| 2026-04-20 13:23 | 54.20935 | -2.96275 | 31304 ft | 443 kts | 155° |
| 2026-04-20 13:24 | 54.15357 | -2.91762 | 31301 ft | 444 kts | 156° |
| 2026-04-20 13:24 | 54.09726 | -2.87598 | 31298 ft | 444 kts | 159° |
| 2026-04-20 13:25 | 54.04017 | -2.83575 | 31298 ft | 444 kts | 159° |
| 2026-04-20 13:25 | 53.98260 | -2.79828 | 31299 ft | 443 kts | 164° |
| 2026-04-20 13:26 | 53.92365 | -2.76690 | 31286 ft | 444 kts | 165° |
| 2026-04-20 13:26 | 53.86463 | -2.73574 | 31292 ft | 444 kts | 165° |
| 2026-04-20 13:27 | 53.80554 | -2.70462 | 31285 ft | 445 kts | 165° |
| 2026-04-20 13:27 | 53.74679 | -2.67382 | 31292 ft | 445 kts | 165° |
| 2026-04-20 13:28 | 53.68764 | -2.64265 | 31273 ft | 445 kts | 165° |
| 2026-04-20 13:28 | 53.62841 | -2.61154 | 31274 ft | 446 kts | 165° |
| 2026-04-20 13:29 | 53.56906 | -2.58065 | 31300 ft | 446 kts | 165° |
| 2026-04-20 13:29 | 53.51005 | -2.55011 | 31306 ft | 446 kts | 165° |
| 2026-04-20 13:30 | 53.45069 | -2.51938 | 31308 ft | 446 kts | 165° |
| 2026-04-20 13:30 | 53.39141 | -2.48881 | 31315 ft | 446 kts | 165° |
| 2026-04-20 13:31 | 53.34215 | -2.46339 | 31319 ft | 446 kts | 165° |
| 2026-04-20 13:31 | 53.28281 | -2.43292 | 31317 ft | 445 kts | 165° |
| 2026-04-20 13:32 | 53.22354 | -2.40255 | 31299 ft | 445 kts | 166° |
| 2026-04-20 13:32 | 53.16459 | -2.37245 | 31295 ft | 446 kts | 166° |
| 2026-04-20 13:33 | 53.10515 | -2.34221 | 31297 ft | 446 kts | 166° |
| 2026-04-20 13:33 | 53.04580 | -2.31166 | 31301 ft | 448 kts | 162° |
| 2026-04-20 13:34 | 52.99060 | -2.26288 | 31305 ft | 452 kts | 149° |
| 2026-04-20 13:34 | 52.93747 | -2.20683 | 31271 ft | 453 kts | 150° |
| 2026-04-20 13:35 | 52.88396 | -2.15088 | 31270 ft | 455 kts | 150° |
| 2026-04-20 13:35 | 52.83059 | -2.09534 | 31223 ft | 456 kts | 150° |
| 2026-04-20 13:35 | 52.80389 | -2.06757 | 30977 ft | 451 kts | 150° |
| 2026-04-20 13:36 | 52.77727 | -2.03987 | 30737 ft | 449 kts | 150° |
| 2026-04-20 13:36 | 52.75092 | -2.01248 | 30494 ft | 447 kts | 151° |
| 2026-04-20 13:36 | 52.72458 | -1.98517 | 30163 ft | 444 kts | 152° |
| 2026-04-20 13:36 | 52.69850 | -1.95814 | 29640 ft | 442 kts | 152° |
| 2026-04-20 13:37 | 52.67256 | -1.93128 | 29144 ft | 439 kts | 152° |
| 2026-04-20 13:37 | 52.64677 | -1.90465 | 28663 ft | 435 kts | 151° |
| 2026-04-20 13:37 | 52.62114 | -1.87824 | 28174 ft | 432 kts | 151° |
| 2026-04-20 13:37 | 52.59604 | -1.85245 | 27738 ft | 429 kts | 151° |
| 2026-04-20 13:38 | 52.57072 | -1.82649 | 27288 ft | 427 kts | 151° |
| 2026-04-20 13:38 | 52.54567 | -1.80085 | 26848 ft | 424 kts | 151° |
| 2026-04-20 13:38 | 52.52072 | -1.77529 | 26405 ft | 421 kts | 151° |
| 2026-04-20 13:38 | 52.49589 | -1.74983 | 25942 ft | 419 kts | 152° |
| 2026-04-20 13:39 | 52.47118 | -1.72454 | 25497 ft | 417 kts | 152° |
| 2026-04-20 13:39 | 52.44650 | -1.69936 | 25045 ft | 416 kts | 152° |
| 2026-04-20 13:39 | 52.42190 | -1.67432 | 24561 ft | 415 kts | 152° |
| 2026-04-20 13:39 | 52.39765 | -1.64966 | 24094 ft | 415 kts | 152° |
| 2026-04-20 13:40 | 52.37285 | -1.62445 | 23541 ft | 414 kts | 152° |
| 2026-04-20 13:40 | 52.34845 | -1.59967 | 23033 ft | 412 kts | 151° |
| 2026-04-20 13:40 | 52.32421 | -1.57506 | 22535 ft | 409 kts | 151° |
| 2026-04-20 13:40 | 52.30009 | -1.55062 | 22058 ft | 406 kts | 151° |
| 2026-04-20 13:41 | 52.27619 | -1.52645 | 21559 ft | 403 kts | 151° |
| 2026-04-20 13:41 | 52.25273 | -1.50278 | 21074 ft | 400 kts | 151° |
| 2026-04-20 13:41 | 52.22917 | -1.47901 | 20587 ft | 397 kts | 151° |
| 2026-04-20 13:41 | 52.20679 | -1.45267 | 20099 ft | 396 kts | 141° |
| 2026-04-20 13:42 | 52.18608 | -1.42351 | 19722 ft | 389 kts | 140° |
| 2026-04-20 13:42 | 52.14542 | -1.36671 | 18945 ft | 379 kts | 140° |
| 2026-04-20 13:42 | 52.12572 | -1.33928 | 18562 ft | 374 kts | 140° |
| 2026-04-20 13:43 | 52.10607 | -1.31194 | 18159 ft | 368 kts | 140° |
| 2026-04-20 13:43 | 52.08671 | -1.28506 | 17776 ft | 362 kts | 140° |
| 2026-04-20 13:43 | 52.06772 | -1.25875 | 17407 ft | 356 kts | 140° |
| 2026-04-20 13:43 | 52.04893 | -1.23273 | 17041 ft | 351 kts | 140° |
| 2026-04-20 13:44 | 52.03045 | -1.20717 | 16645 ft | 347 kts | 140° |
| 2026-04-20 13:44 | 52.01209 | -1.18176 | 16297 ft | 346 kts | 140° |
| 2026-04-20 13:44 | 51.99383 | -1.15649 | 15937 ft | 344 kts | 140° |
| 2026-04-20 13:44 | 51.97585 | -1.13164 | 15600 ft | 341 kts | 140° |
| 2026-04-20 13:45 | 51.95783 | -1.10679 | 15257 ft | 339 kts | 140° |
| 2026-04-20 13:45 | 51.93970 | -1.08179 | 14498 ft | 348 kts | 140° |
| 2026-04-20 13:45 | 51.92098 | -1.05602 | 13734 ft | 355 kts | 140° |
| 2026-04-20 13:45 | 51.90230 | -1.03035 | 13446 ft | 345 kts | 140° |
| 2026-04-20 13:46 | 51.88428 | -1.00563 | 13311 ft | 333 kts | 140° |
| 2026-04-20 13:46 | 51.86692 | -0.98177 | 13171 ft | 323 kts | 139° |
| 2026-04-20 13:46 | 51.85190 | -0.95575 | 13042 ft | 312 kts | 123° |
| 2026-04-20 13:46 | 51.84171 | -0.92560 | 12907 ft | 302 kts | 114° |
| 2026-04-20 13:47 | 51.83256 | -0.89552 | 12769 ft | 293 kts | 115° |
| 2026-04-20 13:47 | 51.82364 | -0.86641 | 12639 ft | 285 kts | 115° |
| 2026-04-20 13:47 | 51.81493 | -0.83804 | 12468 ft | 279 kts | 115° |
| 2026-04-20 13:47 | 51.80646 | -0.81050 | 12227 ft | 275 kts | 115° |
| 2026-04-20 13:48 | 51.79785 | -0.78246 | 11919 ft | 275 kts | 115° |
| 2026-04-20 13:48 | 51.78947 | -0.75516 | 11615 ft | 275 kts | 114° |
| 2026-04-20 13:48 | 51.78100 | -0.72757 | 11355 ft | 273 kts | 115° |
| 2026-04-20 13:48 | 51.77262 | -0.70036 | 11122 ft | 270 kts | 115° |
| 2026-04-20 13:49 | 51.76430 | -0.67337 | 10894 ft | 267 kts | 115° |
| 2026-04-20 13:49 | 51.75604 | -0.64659 | 10631 ft | 265 kts | 115° |
| 2026-04-20 13:49 | 51.74785 | -0.62004 | 10373 ft | 263 kts | 115° |
| 2026-04-20 13:49 | 51.73965 | -0.59358 | 10119 ft | 262 kts | 115° |
| 2026-04-20 13:50 | 51.72937 | -0.56941 | 9726 ft | 267 kts | 136° |
| 2026-04-20 13:50 | 51.71293 | -0.55447 | 9073 ft | 280 kts | 165° |
| 2026-04-20 13:50 | 51.69348 | -0.55375 | 8615 ft | 283 kts | 193° |
| 2026-04-20 13:50 | 51.67601 | -0.56721 | 8223 ft | 285 kts | 219° |
| 2026-04-20 13:51 | 51.66151 | -0.58900 | 7863 ft | 284 kts | 225° |
| 2026-04-20 13:51 | 51.64794 | -0.61141 | 7699 ft | 270 kts | 226° |
| 2026-04-20 13:51 | 51.63533 | -0.63248 | 7537 ft | 254 kts | 226° |
| 2026-04-20 13:51 | 51.62326 | -0.65278 | 7278 ft | 249 kts | 226° |
| 2026-04-20 13:52 | 51.61126 | -0.67307 | 7276 ft | 252 kts | 226° |
| 2026-04-20 13:52 | 51.59912 | -0.69364 | 7238 ft | 253 kts | 226° |
| 2026-04-20 13:52 | 51.58709 | -0.71400 | 7001 ft | 250 kts | 226° |
| 2026-04-20 13:52 | 51.57516 | -0.73423 | 6738 ft | 248 kts | 226° |
| 2026-04-20 13:53 | 51.56349 | -0.75407 | 6603 ft | 239 kts | 226° |
| 2026-04-20 13:53 | 51.55246 | -0.77284 | 6467 ft | 222 kts | 226° |
| 2026-04-20 13:53 | 51.54222 | -0.79037 | 6261 ft | 210 kts | 226° |
| 2026-04-20 13:53 | 51.53203 | -0.80696 | 5871 ft | 209 kts | 217° |
| 2026-04-20 13:54 | 51.51988 | -0.81917 | 5752 ft | 198 kts | 200° |
| 2026-04-20 13:54 | 51.50720 | -0.82505 | 5610 ft | 188 kts | 184° |
| 2026-04-20 13:54 | 51.49380 | -0.82501 | 5108 ft | 197 kts | 166° |
| 2026-04-20 13:54 | 51.48104 | -0.81861 | 4994 ft | 184 kts | 149° |
| 2026-04-20 13:55 | 51.47097 | -0.80768 | 4785 ft | 176 kts | 131° |
| 2026-04-20 13:55 | 51.46324 | -0.79204 | 4349 ft | 182 kts | 115° |
| 2026-04-20 13:55 | 51.45903 | -0.77348 | 4242 ft | 169 kts | 96° |
| 2026-04-20 13:55 | 51.45919 | -0.75536 | 4030 ft | 165 kts | 71° |
| 2026-04-20 13:56 | 51.46538 | -0.73904 | 3545 ft | 178 kts | 44° |